sensor_id;sensor_type;location;lat;lon;timestamp;temperature;humidity
39677;DHT22;27789;50.840;4.386;2023-02-25T00:01:42;5.70;99.90
39677;DHT22;27789;50.840;4.386;2023-02-25T00:04:08;5.70;99.90
39677;DHT22;27789;50.840;4.386;2023-02-25T00:06:34;5.70;99.90
39677;DHT22;27789;50.840;4.386;2023-02-25T00:08:59;5.70;99.90
39677;DHT22;27789;50.840;4.386;2023-02-25T00:11:25;5.70;99.90
39677;DHT22;27789;50.840;4.386;2023-02-25T00:13:52;5.70;99.90
39677;DHT22;27789;50.840;4.386;2023-02-25T00:16:18;5.70;99.90
39677;DHT22;27789;50.840;4.386;2023-02-25T00:18:44;5.70;99.90
39677;DHT22;27789;50.840;4.386;2023-02-25T00:21:11;5.70;99.90
39677;DHT22;27789;50.840;4.386;2023-02-25T00:23:40;5.70;99.90
39677;DHT22;27789;50.840;4.386;2023-02-25T00:26:06;5.70;99.90
39677;DHT22;27789;50.840;4.386;2023-02-25T00:28:33;5.60;99.90
39677;DHT22;27789;50.840;4.386;2023-02-25T00:30:59;5.60;99.90
39677;DHT22;27789;50.840;4.386;2023-02-25T00:33:24;5.60;99.90
39677;DHT22;27789;50.840;4.386;2023-02-25T00:35:50;5.60;99.90
39677;DHT22;27789;50.840;4.386;2023-02-25T00:38:15;5.60;99.90
39677;DHT22;27789;50.840;4.386;2023-02-25T00:40:41;5.60;99.90
39677;DHT22;27789;50.840;4.386;2023-02-25T00:43:07;5.50;99.90
39677;DHT22;27789;50.840;4.386;2023-02-25T00:45:32;5.50;99.90
39677;DHT22;27789;50.840;4.386;2023-02-25T00:47:58;5.50;99.90
39677;DHT22;27789;50.840;4.386;2023-02-25T00:50:24;5.40;99.90
39677;DHT22;27789;50.840;4.386;2023-02-25T00:52:50;5.50;99.90
39677;DHT22;27789;50.840;4.386;2023-02-25T00:55:16;5.50;99.90
39677;DHT22;27789;50.840;4.386;2023-02-25T00:57:41;5.50;99.90
39677;DHT22;27789;50.840;4.386;2023-02-25T01:00:07;5.50;99.90
39677;DHT22;27789;50.840;4.386;2023-02-25T01:02:44;5.50;99.90
39677;DHT22;27789;50.840;4.386;2023-02-25T01:05:10;5.50;99.90
39677;DHT22;27789;50.840;4.386;2023-02-25T01:07:36;5.50;99.90
39677;DHT22;27789;50.840;4.386;2023-02-25T01:10:02;5.50;99.90
39677;DHT22;27789;50.840;4.386;2023-02-25T01:12:28;5.50;99.90
39677;DHT22;27789;50.840;4.386;2023-02-25T01:14:54;5.50;99.90
39677;DHT22;27789;50.840;4.386;2023-02-25T01:17:19;5.50;99.90
39677;DHT22;27789;50.840;4.386;2023-02-25T01:19:45;5.50;99.90
39677;DHT22;27789;50.840;4.386;2023-02-25T01:22:10;5.60;99.90
39677;DHT22;27789;50.840;4.386;2023-02-25T01:24:36;5.60;99.90
39677;DHT22;27789;50.840;4.386;2023-02-25T01:27:02;5.60;99.90
39677;DHT22;27789;50.840;4.386;2023-02-25T01:29:30;5.70;99.90
39677;DHT22;27789;50.840;4.386;2023-02-25T01:31:57;5.60;99.90
39677;DHT22;27789;50.840;4.386;2023-02-25T01:34:23;5.60;99.90
39677;DHT22;27789;50.840;4.386;2023-02-25T01:36:48;5.70;99.90
39677;DHT22;27789;50.840;4.386;2023-02-25T01:39:14;5.70;99.90
39677;DHT22;27789;50.840;4.386;2023-02-25T01:41:40;5.70;99.90
39677;DHT22;27789;50.840;4.386;2023-02-25T01:46:35;5.60;99.90
39677;DHT22;27789;50.840;4.386;2023-02-25T01:49:01;5.60;99.90
39677;DHT22;27789;50.840;4.386;2023-02-25T01:51:27;5.60;99.90
39677;DHT22;27789;50.840;4.386;2023-02-25T01:53:53;5.60;99.90
39677;DHT22;27789;50.840;4.386;2023-02-25T01:56:19;5.60;99.90
39677;DHT22;27789;50.840;4.386;2023-02-25T01:58:47;5.60;99.90
39677;DHT22;27789;50.840;4.386;2023-02-25T02:01:13;5.60;99.90
39677;DHT22;27789;50.840;4.386;2023-02-25T02:03:40;5.60;99.90
39677;DHT22;27789;50.840;4.386;2023-02-25T02:06:10;5.50;99.90
39677;DHT22;27789;50.840;4.386;2023-02-25T02:08:37;5.50;99.90
39677;DHT22;27789;50.840;4.386;2023-02-25T02:11:02;5.50;99.90
39677;DHT22;27789;50.840;4.386;2023-02-25T02:13:29;5.40;99.90
39677;DHT22;27789;50.840;4.386;2023-02-25T02:16:07;5.40;99.90
39677;DHT22;27789;50.840;4.386;2023-02-25T02:18:34;5.30;99.90
39677;DHT22;27789;50.840;4.386;2023-02-25T02:23:43;5.20;99.90
39677;DHT22;27789;50.840;4.386;2023-02-25T02:33:55;5.40;99.90
39677;DHT22;27789;50.840;4.386;2023-02-25T02:36:34;5.40;99.90
39677;DHT22;27789;50.840;4.386;2023-02-25T02:42:04;5.40;99.90
39677;DHT22;27789;50.840;4.386;2023-02-25T02:46:58;5.50;99.90
39677;DHT22;27789;50.840;4.386;2023-02-25T02:52:03;5.40;99.90
39677;DHT22;27789;50.840;4.386;2023-02-25T02:54:34;5.40;99.90
39677;DHT22;27789;50.840;4.386;2023-02-25T02:57:01;5.40;99.90
39677;DHT22;27789;50.840;4.386;2023-02-25T03:01:58;5.50;99.90
39677;DHT22;27789;50.840;4.386;2023-02-25T03:04:28;5.50;99.90
39677;DHT22;27789;50.840;4.386;2023-02-25T03:06:56;5.50;99.90
39677;DHT22;27789;50.840;4.386;2023-02-25T03:09:28;5.50;99.90
39677;DHT22;27789;50.840;4.386;2023-02-25T03:11:57;5.50;99.90
39677;DHT22;27789;50.840;4.386;2023-02-25T03:14:22;5.50;99.90
39677;DHT22;27789;50.840;4.386;2023-02-25T03:17:10;5.50;99.90
39677;DHT22;27789;50.840;4.386;2023-02-25T03:22:14;5.50;99.90
39677;DHT22;27789;50.840;4.386;2023-02-25T03:24:51;5.50;99.90
39677;DHT22;27789;50.840;4.386;2023-02-25T03:27:22;5.50;99.90
39677;DHT22;27789;50.840;4.386;2023-02-25T03:29:48;5.50;99.90
39677;DHT22;27789;50.840;4.386;2023-02-25T03:32:14;5.50;99.90
39677;DHT22;27789;50.840;4.386;2023-02-25T03:34:46;5.50;99.90
39677;DHT22;27789;50.840;4.386;2023-02-25T03:39:50;5.50;99.90
39677;DHT22;27789;50.840;4.386;2023-02-25T03:42:21;5.50;99.90
39677;DHT22;27789;50.840;4.386;2023-02-25T03:44:49;5.60;99.90
39677;DHT22;27789;50.840;4.386;2023-02-25T03:47:15;5.60;99.90
39677;DHT22;27789;50.840;4.386;2023-02-25T03:49:47;5.50;99.90
39677;DHT22;27789;50.840;4.386;2023-02-25T03:52:16;5.60;99.90
39677;DHT22;27789;50.840;4.386;2023-02-25T03:54:42;5.60;99.90
39677;DHT22;27789;50.840;4.386;2023-02-25T03:57:07;5.60;99.90
39677;DHT22;27789;50.840;4.386;2023-02-25T03:59:33;5.50;99.90
39677;DHT22;27789;50.840;4.386;2023-02-25T04:01:58;5.60;99.90
39677;DHT22;27789;50.840;4.386;2023-02-25T04:04:25;5.50;99.90
39677;DHT22;27789;50.840;4.386;2023-02-25T04:06:50;5.50;99.90
39677;DHT22;27789;50.840;4.386;2023-02-25T04:09:16;5.50;99.90
39677;DHT22;27789;50.840;4.386;2023-02-25T04:11:42;5.50;99.90
39677;DHT22;27789;50.840;4.386;2023-02-25T04:14:08;5.50;99.90
39677;DHT22;27789;50.840;4.386;2023-02-25T04:16:33;5.60;99.90
39677;DHT22;27789;50.840;4.386;2023-02-25T04:18:59;5.60;99.90
39677;DHT22;27789;50.840;4.386;2023-02-25T04:23:50;5.60;99.90
39677;DHT22;27789;50.840;4.386;2023-02-25T04:26:15;5.60;99.90
39677;DHT22;27789;50.840;4.386;2023-02-25T04:28:41;5.60;99.90
39677;DHT22;27789;50.840;4.386;2023-02-25T04:31:06;5.60;99.90
39677;DHT22;27789;50.840;4.386;2023-02-25T04:33:32;5.60;99.90
39677;DHT22;27789;50.840;4.386;2023-02-25T04:35:57;5.60;99.90
39677;DHT22;27789;50.840;4.386;2023-02-25T04:38:23;5.60;99.90
39677;DHT22;27789;50.840;4.386;2023-02-25T04:40:50;5.60;99.90
39677;DHT22;27789;50.840;4.386;2023-02-25T04:43:15;5.60;99.90
39677;DHT22;27789;50.840;4.386;2023-02-25T04:45:41;5.70;99.90
39677;DHT22;27789;50.840;4.386;2023-02-25T04:48:06;5.70;99.90
39677;DHT22;27789;50.840;4.386;2023-02-25T04:50:32;5.70;99.90
39677;DHT22;27789;50.840;4.386;2023-02-25T04:52:58;5.60;99.90
39677;DHT22;27789;50.840;4.386;2023-02-25T04:55:23;5.60;99.90
39677;DHT22;27789;50.840;4.386;2023-02-25T04:57:49;5.60;99.90
39677;DHT22;27789;50.840;4.386;2023-02-25T05:00:16;5.60;99.90
39677;DHT22;27789;50.840;4.386;2023-02-25T05:02:46;5.60;99.90
39677;DHT22;27789;50.840;4.386;2023-02-25T05:05:12;5.60;99.90
39677;DHT22;27789;50.840;4.386;2023-02-25T05:07:38;5.60;99.90
39677;DHT22;27789;50.840;4.386;2023-02-25T05:10:04;5.70;99.90
39677;DHT22;27789;50.840;4.386;2023-02-25T05:12:29;5.70;99.90
39677;DHT22;27789;50.840;4.386;2023-02-25T05:14:55;5.70;99.90
39677;DHT22;27789;50.840;4.386;2023-02-25T05:17:20;5.70;99.90
39677;DHT22;27789;50.840;4.386;2023-02-25T05:19:46;5.80;99.90
39677;DHT22;27789;50.840;4.386;2023-02-25T05:22:11;5.80;99.90
39677;DHT22;27789;50.840;4.386;2023-02-25T05:24:37;5.80;99.90
39677;DHT22;27789;50.840;4.386;2023-02-25T05:27:03;5.80;99.90
39677;DHT22;27789;50.840;4.386;2023-02-25T05:29:29;5.80;99.90
39677;DHT22;27789;50.840;4.386;2023-02-25T05:31:54;5.70;99.90
39677;DHT22;27789;50.840;4.386;2023-02-25T05:34:19;5.60;99.90
39677;DHT22;27789;50.840;4.386;2023-02-25T05:36:47;5.70;99.90
39677;DHT22;27789;50.840;4.386;2023-02-25T05:39:12;5.60;99.90
39677;DHT22;27789;50.840;4.386;2023-02-25T05:41:38;5.70;99.90
39677;DHT22;27789;50.840;4.386;2023-02-25T05:44:04;5.70;99.90
39677;DHT22;27789;50.840;4.386;2023-02-25T05:46:29;5.70;99.90
39677;DHT22;27789;50.840;4.386;2023-02-25T05:48:55;5.70;99.90
39677;DHT22;27789;50.840;4.386;2023-02-25T05:51:21;5.70;99.90
39677;DHT22;27789;50.840;4.386;2023-02-25T05:53:48;5.80;99.90
39677;DHT22;27789;50.840;4.386;2023-02-25T05:56:15;5.80;99.90
39677;DHT22;27789;50.840;4.386;2023-02-25T05:58:40;5.80;99.90
39677;DHT22;27789;50.840;4.386;2023-02-25T06:01:07;5.80;99.90
39677;DHT22;27789;50.840;4.386;2023-02-25T06:03:36;5.80;99.90
39677;DHT22;27789;50.840;4.386;2023-02-25T06:06:01;5.80;99.90
39677;DHT22;27789;50.840;4.386;2023-02-25T06:08:27;5.90;99.90
39677;DHT22;27789;50.840;4.386;2023-02-25T06:10:52;5.80;99.90
39677;DHT22;27789;50.840;4.386;2023-02-25T06:13:18;5.90;99.90
39677;DHT22;27789;50.840;4.386;2023-02-25T06:15:43;5.90;99.90
39677;DHT22;27789;50.840;4.386;2023-02-25T06:18:09;5.80;99.90
39677;DHT22;27789;50.840;4.386;2023-02-25T06:20:34;5.80;99.90
39677;DHT22;27789;50.840;4.386;2023-02-25T06:23:03;5.70;99.90
39677;DHT22;27789;50.840;4.386;2023-02-25T06:25:28;5.70;99.90
39677;DHT22;27789;50.840;4.386;2023-02-25T06:27:58;5.60;99.90
39677;DHT22;27789;50.840;4.386;2023-02-25T06:30:24;5.70;99.90
39677;DHT22;27789;50.840;4.386;2023-02-25T06:32:49;5.70;99.90
39677;DHT22;27789;50.840;4.386;2023-02-25T06:35:15;5.70;99.90
39677;DHT22;27789;50.840;4.386;2023-02-25T06:37:40;5.80;99.90
39677;DHT22;27789;50.840;4.386;2023-02-25T06:40:06;5.80;99.90
39677;DHT22;27789;50.840;4.386;2023-02-25T06:42:37;5.80;99.90
39677;DHT22;27789;50.840;4.386;2023-02-25T06:45:02;5.80;99.90
39677;DHT22;27789;50.840;4.386;2023-02-25T06:47:28;5.90;99.90
39677;DHT22;27789;50.840;4.386;2023-02-25T06:49:54;5.90;99.90
39677;DHT22;27789;50.840;4.386;2023-02-25T06:52:19;5.90;99.90
39677;DHT22;27789;50.840;4.386;2023-02-25T06:54:44;5.90;99.90
39677;DHT22;27789;50.840;4.386;2023-02-25T06:57:10;5.80;99.90
39677;DHT22;27789;50.840;4.386;2023-02-25T06:59:35;5.80;99.90
39677;DHT22;27789;50.840;4.386;2023-02-25T07:02:01;5.70;99.90
39677;DHT22;27789;50.840;4.386;2023-02-25T07:04:26;5.80;99.90
39677;DHT22;27789;50.840;4.386;2023-02-25T07:06:52;5.70;99.90
39677;DHT22;27789;50.840;4.386;2023-02-25T07:09:17;5.80;99.90
39677;DHT22;27789;50.840;4.386;2023-02-25T07:11:43;5.80;99.90
39677;DHT22;27789;50.840;4.386;2023-02-25T07:14:08;5.80;99.90
39677;DHT22;27789;50.840;4.386;2023-02-25T07:16:34;5.90;99.90
39677;DHT22;27789;50.840;4.386;2023-02-25T07:19:00;5.90;99.90
39677;DHT22;27789;50.840;4.386;2023-02-25T07:21:26;5.80;99.90
39677;DHT22;27789;50.840;4.386;2023-02-25T07:23:53;5.80;99.90
39677;DHT22;27789;50.840;4.386;2023-02-25T07:26:19;5.80;99.90
39677;DHT22;27789;50.840;4.386;2023-02-25T07:28:44;5.80;99.90
39677;DHT22;27789;50.840;4.386;2023-02-25T07:31:11;5.80;99.90
39677;DHT22;27789;50.840;4.386;2023-02-25T07:33:37;5.90;99.90
39677;DHT22;27789;50.840;4.386;2023-02-25T07:36:02;6.00;99.90
39677;DHT22;27789;50.840;4.386;2023-02-25T07:38:28;6.00;99.90
39677;DHT22;27789;50.840;4.386;2023-02-25T07:40:53;6.00;99.90
39677;DHT22;27789;50.840;4.386;2023-02-25T07:43:19;6.00;99.90
39677;DHT22;27789;50.840;4.386;2023-02-25T07:45:44;6.10;99.90
39677;DHT22;27789;50.840;4.386;2023-02-25T07:48:10;6.10;99.90
39677;DHT22;27789;50.840;4.386;2023-02-25T07:50:35;6.10;99.90
39677;DHT22;27789;50.840;4.386;2023-02-25T07:53:01;6.10;99.90
39677;DHT22;27789;50.840;4.386;2023-02-25T07:55:26;6.10;99.90
39677;DHT22;27789;50.840;4.386;2023-02-25T07:57:52;6.10;99.90
39677;DHT22;27789;50.840;4.386;2023-02-25T08:00:17;6.20;99.90
39677;DHT22;27789;50.840;4.386;2023-02-25T08:02:43;6.20;99.90
39677;DHT22;27789;50.840;4.386;2023-02-25T08:05:09;6.20;99.90
39677;DHT22;27789;50.840;4.386;2023-02-25T08:07:35;6.20;99.90
39677;DHT22;27789;50.840;4.386;2023-02-25T08:10:00;6.10;99.90
39677;DHT22;27789;50.840;4.386;2023-02-25T08:12:26;6.10;99.90
39677;DHT22;27789;50.840;4.386;2023-02-25T08:14:51;6.10;99.90
39677;DHT22;27789;50.840;4.386;2023-02-25T08:17:17;6.10;99.90
39677;DHT22;27789;50.840;4.386;2023-02-25T08:19:42;6.00;99.90
39677;DHT22;27789;50.840;4.386;2023-02-25T08:22:08;6.00;99.90
39677;DHT22;27789;50.840;4.386;2023-02-25T08:24:36;5.90;99.90
39677;DHT22;27789;50.840;4.386;2023-02-25T08:27:02;6.00;99.90
39677;DHT22;27789;50.840;4.386;2023-02-25T08:29:27;6.10;99.90
39677;DHT22;27789;50.840;4.386;2023-02-25T08:31:53;6.10;99.90
39677;DHT22;27789;50.840;4.386;2023-02-25T08:34:19;6.20;99.90
39677;DHT22;27789;50.840;4.386;2023-02-25T08:36:44;6.40;99.90
39677;DHT22;27789;50.840;4.386;2023-02-25T08:39:11;6.60;99.90
39677;DHT22;27789;50.840;4.386;2023-02-25T08:41:37;6.60;99.90
39677;DHT22;27789;50.840;4.386;2023-02-25T08:44:03;6.50;99.90
39677;DHT22;27789;50.840;4.386;2023-02-25T08:46:30;6.50;99.90
39677;DHT22;27789;50.840;4.386;2023-02-25T08:48:56;6.40;99.90
39677;DHT22;27789;50.840;4.386;2023-02-25T08:51:23;6.40;99.90
39677;DHT22;27789;50.840;4.386;2023-02-25T08:53:49;6.50;99.90
39677;DHT22;27789;50.840;4.386;2023-02-25T08:56:15;6.60;99.90
39677;DHT22;27789;50.840;4.386;2023-02-25T08:58:41;6.60;99.90
39677;DHT22;27789;50.840;4.386;2023-02-25T09:01:07;6.80;99.90
39677;DHT22;27789;50.840;4.386;2023-02-25T09:03:37;7.00;99.90
39677;DHT22;27789;50.840;4.386;2023-02-25T09:06:03;7.00;99.90
39677;DHT22;27789;50.840;4.386;2023-02-25T09:08:28;7.00;99.90
39677;DHT22;27789;50.840;4.386;2023-02-25T09:10:55;6.90;99.90
39677;DHT22;27789;50.840;4.386;2023-02-25T09:13:21;7.00;99.90
39677;DHT22;27789;50.840;4.386;2023-02-25T09:15:54;7.10;99.90
39677;DHT22;27789;50.840;4.386;2023-02-25T09:18:19;7.20;99.90
39677;DHT22;27789;50.840;4.386;2023-02-25T09:20:48;7.40;99.90
39677;DHT22;27789;50.840;4.386;2023-02-25T09:23:13;7.50;99.90
39677;DHT22;27789;50.840;4.386;2023-02-25T09:25:39;7.60;99.90
39677;DHT22;27789;50.840;4.386;2023-02-25T09:28:08;7.60;99.90
39677;DHT22;27789;50.840;4.386;2023-02-25T09:30:34;7.70;99.90
39677;DHT22;27789;50.840;4.386;2023-02-25T09:32:59;7.60;99.90
39677;DHT22;27789;50.840;4.386;2023-02-25T09:35:25;7.50;99.90
39677;DHT22;27789;50.840;4.386;2023-02-25T09:37:50;7.50;99.90
39677;DHT22;27789;50.840;4.386;2023-02-25T09:40:17;7.50;99.90
39677;DHT22;27789;50.840;4.386;2023-02-25T09:45:24;7.40;99.90
39677;DHT22;27789;50.840;4.386;2023-02-25T09:47:57;7.40;99.90
39677;DHT22;27789;50.840;4.386;2023-02-25T09:55:45;7.60;99.90
39677;DHT22;27789;50.840;4.386;2023-02-25T10:06:03;8.30;99.90
39677;DHT22;27789;50.840;4.386;2023-02-25T10:08:37;8.90;99.90
39677;DHT22;27789;50.840;4.386;2023-02-25T10:11:08;9.50;99.90
39677;DHT22;27789;50.840;4.386;2023-02-25T10:16:01;10.50;99.90
39677;DHT22;27789;50.840;4.386;2023-02-25T10:21:10;11.80;99.90
39677;DHT22;27789;50.840;4.386;2023-02-25T10:26:21;11.90;99.90
39677;DHT22;27789;50.840;4.386;2023-02-25T10:28:51;11.20;99.90
39677;DHT22;27789;50.840;4.386;2023-02-25T10:31:19;11.80;99.90
39677;DHT22;27789;50.840;4.386;2023-02-25T10:33:46;11.70;99.90
39677;DHT22;27789;50.840;4.386;2023-02-25T10:36:16;10.90;99.90
39677;DHT22;27789;50.840;4.386;2023-02-25T10:38:43;10.40;99.90
39677;DHT22;27789;50.840;4.386;2023-02-25T10:41:09;10.00;99.90
39677;DHT22;27789;50.840;4.386;2023-02-25T10:43:35;9.50;99.90
39677;DHT22;27789;50.840;4.386;2023-02-25T10:48:30;9.10;99.90
39677;DHT22;27789;50.840;4.386;2023-02-25T10:53:36;8.80;99.90
39677;DHT22;27789;50.840;4.386;2023-02-25T10:56:03;8.60;99.90
39677;DHT22;27789;50.840;4.386;2023-02-25T10:58:34;8.60;99.90
39677;DHT22;27789;50.840;4.386;2023-02-25T11:01:03;8.40;99.90
39677;DHT22;27789;50.840;4.386;2023-02-25T11:03:30;8.30;99.90
39677;DHT22;27789;50.840;4.386;2023-02-25T11:08:32;7.90;99.90
39677;DHT22;27789;50.840;4.386;2023-02-25T11:10:59;7.80;99.90
39677;DHT22;27789;50.840;4.386;2023-02-25T11:13:27;7.70;99.90
39677;DHT22;27789;50.840;4.386;2023-02-25T11:15:53;7.70;99.90
39677;DHT22;27789;50.840;4.386;2023-02-25T11:18:20;7.70;99.90
39677;DHT22;27789;50.840;4.386;2023-02-25T11:20:50;8.40;99.90
39677;DHT22;27789;50.840;4.386;2023-02-25T11:23:19;10.10;99.90
39677;DHT22;27789;50.840;4.386;2023-02-25T11:25:45;11.70;99.90
39677;DHT22;27789;50.840;4.386;2023-02-25T11:28:19;13.00;99.90
39677;DHT22;27789;50.840;4.386;2023-02-25T11:30:48;13.90;99.90
39677;DHT22;27789;50.840;4.386;2023-02-25T11:35:45;15.40;99.30
39677;DHT22;27789;50.840;4.386;2023-02-25T11:40:46;16.40;97.60
39677;DHT22;27789;50.840;4.386;2023-02-25T11:43:13;16.60;97.20
39677;DHT22;27789;50.840;4.386;2023-02-25T11:45:46;16.70;96.60
39677;DHT22;27789;50.840;4.386;2023-02-25T11:48:18;16.80;96.30
39677;DHT22;27789;50.840;4.386;2023-02-25T11:56:01;14.00;98.70
39677;DHT22;27789;50.840;4.386;2023-02-25T12:01:15;12.40;99.90
39677;DHT22;27789;50.840;4.386;2023-02-25T12:11:22;10.30;99.90
39677;DHT22;27789;50.840;4.386;2023-02-25T12:34:03;8.00;99.90
39677;DHT22;27789;50.840;4.386;2023-02-25T12:36:33;8.10;99.90
39677;DHT22;27789;50.840;4.386;2023-02-25T12:41:33;8.40;99.90
39677;DHT22;27789;50.840;4.386;2023-02-25T12:51:34;10.90;99.90
39677;DHT22;27789;50.840;4.386;2023-02-25T13:17:08;19.20;94.40
39677;DHT22;27789;50.840;4.386;2023-02-25T13:37:58;12.50;98.50
39677;DHT22;27789;50.840;4.386;2023-02-25T13:43:11;11.80;99.20
39677;DHT22;27789;50.840;4.386;2023-02-25T13:50:55;12.70;98.50
39677;DHT22;27789;50.840;4.386;2023-02-25T13:58:44;13.00;97.60
39677;DHT22;27789;50.840;4.386;2023-02-25T14:01:18;13.30;97.20
39677;DHT22;27789;50.840;4.386;2023-02-25T14:21:35;11.20;97.20
39677;DHT22;27789;50.840;4.386;2023-02-25T14:37:06;10.50;99.60
39677;DHT22;27789;50.840;4.386;2023-02-25T14:47:10;10.10;99.30
39677;DHT22;27789;50.840;4.386;2023-02-25T14:49:53;9.80;99.00
39677;DHT22;27789;50.840;4.386;2023-02-25T14:57:48;9.50;99.60
39677;DHT22;27789;50.840;4.386;2023-02-25T15:03:42;9.40;99.90
39677;DHT22;27789;50.840;4.386;2023-02-25T15:10:58;9.40;99.90
39677;DHT22;27789;50.840;4.386;2023-02-25T15:13:32;9.40;99.90
39677;DHT22;27789;50.840;4.386;2023-02-25T15:23:51;9.20;99.90
39677;DHT22;27789;50.840;4.386;2023-02-25T15:26:18;9.10;99.90
39677;DHT22;27789;50.840;4.386;2023-02-25T15:28:46;9.10;99.90
39677;DHT22;27789;50.840;4.386;2023-02-25T15:33:53;9.20;99.90
39677;DHT22;27789;50.840;4.386;2023-02-25T15:36:21;9.30;99.90
39677;DHT22;27789;50.840;4.386;2023-02-25T15:43:48;9.00;99.90
39677;DHT22;27789;50.840;4.386;2023-02-25T15:49:42;8.80;99.90
39677;DHT22;27789;50.840;4.386;2023-02-25T15:56:52;8.60;99.90
39677;DHT22;27789;50.840;4.386;2023-02-25T16:01:54;8.50;99.90
39677;DHT22;27789;50.840;4.386;2023-02-25T16:06:56;8.50;99.90
39677;DHT22;27789;50.840;4.386;2023-02-25T16:09:24;8.50;99.90
39677;DHT22;27789;50.840;4.386;2023-02-25T16:11:50;8.40;99.90
39677;DHT22;27789;50.840;4.386;2023-02-25T16:14:18;8.40;99.90
39677;DHT22;27789;50.840;4.386;2023-02-25T16:16:51;8.40;99.90
39677;DHT22;27789;50.840;4.386;2023-02-25T16:19:19;8.40;99.90
39677;DHT22;27789;50.840;4.386;2023-02-25T16:21:53;8.40;99.90
39677;DHT22;27789;50.840;4.386;2023-02-25T16:24:20;8.30;99.90
39677;DHT22;27789;50.840;4.386;2023-02-25T16:26:54;8.30;99.90
39677;DHT22;27789;50.840;4.386;2023-02-25T16:32:03;8.10;99.90
39677;DHT22;27789;50.840;4.386;2023-02-25T16:37:08;7.90;99.90
39677;DHT22;27789;50.840;4.386;2023-02-25T16:39:36;7.80;99.90
39677;DHT22;27789;50.840;4.386;2023-02-25T16:42:03;7.70;99.90
39677;DHT22;27789;50.840;4.386;2023-02-25T16:44:36;7.70;99.90
39677;DHT22;27789;50.840;4.386;2023-02-25T16:47:04;7.70;99.90
39677;DHT22;27789;50.840;4.386;2023-02-25T16:49:31;7.70;99.90
39677;DHT22;27789;50.840;4.386;2023-02-25T16:51:58;7.70;99.90
39677;DHT22;27789;50.840;4.386;2023-02-25T16:54:25;7.60;99.80
39677;DHT22;27789;50.840;4.386;2023-02-25T16:56:54;7.60;99.70
39677;DHT22;27789;50.840;4.386;2023-02-25T16:59:22;7.50;99.70
39677;DHT22;27789;50.840;4.386;2023-02-25T17:04:29;7.40;99.40
39677;DHT22;27789;50.840;4.386;2023-02-25T17:09:31;7.30;99.40
39677;DHT22;27789;50.840;4.386;2023-02-25T17:11:57;7.30;99.30
39677;DHT22;27789;50.840;4.386;2023-02-25T17:14:23;7.20;99.10
39677;DHT22;27789;50.840;4.386;2023-02-25T17:16:49;7.10;99.30
39677;DHT22;27789;50.840;4.386;2023-02-25T17:19:15;7.10;99.10
39677;DHT22;27789;50.840;4.386;2023-02-25T17:21:42;7.00;99.00
39677;DHT22;27789;50.840;4.386;2023-02-25T17:24:11;7.00;99.40
39677;DHT22;27789;50.840;4.386;2023-02-25T17:26:41;7.00;99.10
39677;DHT22;27789;50.840;4.386;2023-02-25T17:29:12;6.90;99.00
39677;DHT22;27789;50.840;4.386;2023-02-25T17:31:45;6.90;99.20
39677;DHT22;27789;50.840;4.386;2023-02-25T17:34:15;6.90;99.30
39677;DHT22;27789;50.840;4.386;2023-02-25T17:36:42;6.90;99.20
39677;DHT22;27789;50.840;4.386;2023-02-25T17:39:11;6.80;99.10
39677;DHT22;27789;50.840;4.386;2023-02-25T17:41:37;6.80;99.10
39677;DHT22;27789;50.840;4.386;2023-02-25T17:44:42;6.70;99.30
39677;DHT22;27789;50.840;4.386;2023-02-25T17:46:57;6.60;99.50
39677;DHT22;27789;50.840;4.386;2023-02-25T17:51:55;6.60;99.40
39677;DHT22;27789;50.840;4.386;2023-02-25T17:54:22;6.50;99.60
39677;DHT22;27789;50.840;4.386;2023-02-25T18:02:00;6.40;99.90
39677;DHT22;27789;50.840;4.386;2023-02-25T18:04:32;6.40;99.80
39677;DHT22;27789;50.840;4.386;2023-02-25T18:06:58;6.40;99.50
39677;DHT22;27789;50.840;4.386;2023-02-25T18:09:28;6.30;99.90
39677;DHT22;27789;50.840;4.386;2023-02-25T18:11:55;6.30;99.60
39677;DHT22;27789;50.840;4.386;2023-02-25T18:14:23;6.30;99.70
39677;DHT22;27789;50.840;4.386;2023-02-25T18:16:50;6.20;99.50
39677;DHT22;27789;50.840;4.386;2023-02-25T18:19:23;6.20;99.80
39677;DHT22;27789;50.840;4.386;2023-02-25T18:21:49;6.10;99.70
39677;DHT22;27789;50.840;4.386;2023-02-25T18:24:26;6.10;99.90
39677;DHT22;27789;50.840;4.386;2023-02-25T18:29:27;6.10;99.90
39677;DHT22;27789;50.840;4.386;2023-02-25T18:31:52;6.00;99.90
39677;DHT22;27789;50.840;4.386;2023-02-25T18:34:18;5.90;99.90
39677;DHT22;27789;50.840;4.386;2023-02-25T18:36:43;5.90;99.90
39677;DHT22;27789;50.840;4.386;2023-02-25T18:39:09;5.90;99.90
39677;DHT22;27789;50.840;4.386;2023-02-25T18:41:36;5.80;99.90
39677;DHT22;27789;50.840;4.386;2023-02-25T18:44:02;5.80;99.90
39677;DHT22;27789;50.840;4.386;2023-02-25T18:46:27;5.70;99.90
39677;DHT22;27789;50.840;4.386;2023-02-25T18:48:53;5.70;99.90
39677;DHT22;27789;50.840;4.386;2023-02-25T18:51:18;5.60;99.90
39677;DHT22;27789;50.840;4.386;2023-02-25T18:53:43;5.60;99.90
39677;DHT22;27789;50.840;4.386;2023-02-25T18:56:11;5.60;99.90
39677;DHT22;27789;50.840;4.386;2023-02-25T18:58:39;5.60;99.90
39677;DHT22;27789;50.840;4.386;2023-02-25T19:01:04;5.80;99.90
39677;DHT22;27789;50.840;4.386;2023-02-25T19:03:34;5.60;99.90
39677;DHT22;27789;50.840;4.386;2023-02-25T19:06:00;5.50;99.90
39677;DHT22;27789;50.840;4.386;2023-02-25T19:08:26;5.50;99.90
39677;DHT22;27789;50.840;4.386;2023-02-25T19:10:52;5.50;99.90
39677;DHT22;27789;50.840;4.386;2023-02-25T19:13:19;5.50;99.90
39677;DHT22;27789;50.840;4.386;2023-02-25T19:15:45;5.40;99.90
39677;DHT22;27789;50.840;4.386;2023-02-25T19:18:11;5.40;99.90
39677;DHT22;27789;50.840;4.386;2023-02-25T19:20:37;5.40;99.90
39677;DHT22;27789;50.840;4.386;2023-02-25T19:23:02;5.40;99.90
39677;DHT22;27789;50.840;4.386;2023-02-25T19:25:29;5.30;99.90
39677;DHT22;27789;50.840;4.386;2023-02-25T19:27:55;5.30;99.90
39677;DHT22;27789;50.840;4.386;2023-02-25T19:30:23;5.30;99.90
39677;DHT22;27789;50.840;4.386;2023-02-25T19:32:49;5.30;99.90
39677;DHT22;27789;50.840;4.386;2023-02-25T19:35:14;5.20;99.90
39677;DHT22;27789;50.840;4.386;2023-02-25T19:37:40;5.20;99.90
39677;DHT22;27789;50.840;4.386;2023-02-25T19:40:07;5.20;99.90
39677;DHT22;27789;50.840;4.386;2023-02-25T19:42:38;5.20;99.90
39677;DHT22;27789;50.840;4.386;2023-02-25T19:45:04;5.10;99.90
39677;DHT22;27789;50.840;4.386;2023-02-25T19:47:30;5.10;99.90
39677;DHT22;27789;50.840;4.386;2023-02-25T19:49:55;5.10;99.90
39677;DHT22;27789;50.840;4.386;2023-02-25T19:52:21;5.10;99.90
39677;DHT22;27789;50.840;4.386;2023-02-25T19:54:46;5.10;99.90
39677;DHT22;27789;50.840;4.386;2023-02-25T19:57:12;5.00;99.90
39677;DHT22;27789;50.840;4.386;2023-02-25T19:59:38;5.00;99.90
39677;DHT22;27789;50.840;4.386;2023-02-25T20:02:03;5.00;99.90
39677;DHT22;27789;50.840;4.386;2023-02-25T20:04:29;4.90;99.90
39677;DHT22;27789;50.840;4.386;2023-02-25T20:06:55;4.90;99.90
39677;DHT22;27789;50.840;4.386;2023-02-25T20:09:20;4.90;99.90
39677;DHT22;27789;50.840;4.386;2023-02-25T20:11:46;4.90;99.90
39677;DHT22;27789;50.840;4.386;2023-02-25T20:14:13;4.90;99.90